createdAt,value
2017-10-14T00:01:47.625Z,60.92
2017-10-14T00:04:14.060Z,61.18
2017-10-14T00:06:40.494Z,61.17
2017-10-14T00:09:06.929Z,61.18
2017-10-14T00:11:33.363Z,61.18
2017-10-14T00:13:59.749Z,60.96
2017-10-14T00:16:27.071Z,61.16
2017-10-14T00:18:53.596Z,61.14
2017-10-14T00:21:20.024Z,61.19
2017-10-14T00:23:46.459Z,61.40
2017-10-14T00:26:12.900Z,61.65
2017-10-14T00:28:39.331Z,61.74
2017-10-14T00:31:05.869Z,61.87
2017-10-14T00:33:33.020Z,62.23
2017-10-14T00:35:59.455Z,62.00
2017-10-14T00:38:25.893Z,62.22
2017-10-14T00:40:52.322Z,62.31
2017-10-14T00:43:18.703Z,62.49
2017-10-14T00:45:45.192Z,62.51
2017-10-14T00:48:11.626Z,62.48
2017-10-14T00:50:38.727Z,62.39
2017-10-14T00:53:05.109Z,62.40
2017-10-14T00:55:31.545Z,62.75
2017-10-14T00:57:58.086Z,63.04
2017-10-14T01:00:24.515Z,63.17
2017-10-14T01:02:50.951Z,63.22
2017-10-14T01:05:17.298Z,63.34
2017-10-14T01:07:44.642Z,63.67
2017-10-14T01:10:11.075Z,63.61
2017-10-14T01:12:37.510Z,63.77
2017-10-14T01:15:03.995Z,63.99
2017-10-14T01:17:30.481Z,64.20
2017-10-14T01:19:56.813Z,63.97
2017-10-14T01:22:23.253Z,63.91
2017-10-14T01:24:50.400Z,64.01
2017-10-14T01:27:16.834Z,64.43
2017-10-14T01:29:43.270Z,64.61
2017-10-14T01:32:09.705Z,64.40
2017-10-14T01:34:36.090Z,64.37
2017-10-14T01:37:02.523Z,64.27
2017-10-14T01:39:28.988Z,64.34
2017-10-14T01:41:56.169Z,64.70
2017-10-14T01:44:22.596Z,64.76
2017-10-14T01:46:49.030Z,64.93
2017-10-14T01:49:15.470Z,65.16
2017-10-14T01:51:41.899Z,65.31
2017-10-14T01:54:08.335Z,65.51
2017-10-14T01:56:34.770Z,65.69
2017-10-14T01:59:02.025Z,65.82
2017-10-14T02:01:28.458Z,66.02
2017-10-14T02:03:54.885Z,65.77
2017-10-14T02:06:21.327Z,65.59
2017-10-14T02:08:47.763Z,65.41
2017-10-14T02:11:14.143Z,65.38
2017-10-14T02:13:40.633Z,65.37
2017-10-14T02:16:07.783Z,65.38
2017-10-14T02:18:34.320Z,65.35
2017-10-14T02:21:00.756Z,65.30
2017-10-14T02:23:27.193Z,65.31
2017-10-14T02:25:53.644Z,65.35
2017-10-14T02:28:20.162Z,65.59
2017-10-14T02:30:46.597Z,65.87
2017-10-14T02:33:13.852Z,66.22
2017-10-14T02:35:40.287Z,66.83
2017-10-14T02:38:06.674Z,67.29
2017-10-14T02:40:33.147Z,67.54
2017-10-14T02:42:59.599Z,67.56
2017-10-14T02:45:25.982Z,67.79
2017-10-14T02:47:52.360Z,68.13
2017-10-14T02:50:19.515Z,68.01
2017-10-14T02:52:45.911Z,68.20
2017-10-14T02:55:12.282Z,68.52
2017-10-14T02:57:38.662Z,68.60
2017-10-14T03:00:05.044Z,68.62
2017-10-14T03:02:31.479Z,68.41
2017-10-14T03:04:57.871Z,68.16
2017-10-14T03:07:25.167Z,68.48
2017-10-14T03:09:51.602Z,68.62
2017-10-14T03:12:17.988Z,68.53
2017-10-14T03:14:44.370Z,68.72
2017-10-14T03:17:10.805Z,68.73
2017-10-14T03:19:37.238Z,68.63
2017-10-14T03:22:03.673Z,68.86
2017-10-14T03:24:30.926Z,68.98
2017-10-14T03:26:57.328Z,69.03
2017-10-14T03:29:23.756Z,68.86
2017-10-14T03:31:50.214Z,68.73
2017-10-14T03:34:16.618Z,68.60
2017-10-14T03:36:43.101Z,68.24
2017-10-14T03:39:09.537Z,68.16
2017-10-14T03:41:36.790Z,68.00
2017-10-14T03:44:03.227Z,68.31
2017-10-14T03:46:29.762Z,68.60
2017-10-14T03:48:56.300Z,69.01
2017-10-14T03:51:22.735Z,69.07
2017-10-14T03:53:49.228Z,69.27
2017-10-14T03:56:15.715Z,69.87
2017-10-14T03:58:42.858Z,70.23
2017-10-14T04:01:09.311Z,70.42
2017-10-14T04:03:35.830Z,70.35
2017-10-14T04:06:02.264Z,70.35
2017-10-14T04:08:28.648Z,70.14
2017-10-14T04:10:55.545Z,70.17
2017-10-14T04:13:21.979Z,70.28
2017-10-14T04:15:49.116Z,70.53
2017-10-14T04:18:15.668Z,70.71
2017-10-14T04:20:42.103Z,71.21
2017-10-14T04:23:09.378Z,71.42
2017-10-14T04:25:35.947Z,71.40
2017-10-14T04:28:02.448Z,71.40
2017-10-14T04:30:28.866Z,71.46
2017-10-14T04:32:55.301Z,71.55
2017-10-14T04:35:21.735Z,71.61
2017-10-14T04:37:48.170Z,71.84
2017-10-14T04:40:14.607Z,71.99
2017-10-14T04:42:41.039Z,72.38
2017-10-14T04:45:07.475Z,72.39
2017-10-14T04:47:33.903Z,72.38
2017-10-14T04:50:00.344Z,72.12
2017-10-14T04:52:26.790Z,72.09
2017-10-14T04:54:53.214Z,72.13
2017-10-14T04:57:19.649Z,72.43
2017-10-14T04:59:46.084Z,72.84
2017-10-14T05:02:12.868Z,72.67
2017-10-14T05:04:39.261Z,72.36
2017-10-14T05:07:05.713Z,72.34
2017-10-14T05:09:32.110Z,71.85
2017-10-14T05:11:58.566Z,71.49
2017-10-14T05:14:25.000Z,71.19
2017-10-14T05:16:51.434Z,70.94
2017-10-14T05:19:17.869Z,70.88
2017-10-14T05:21:44.308Z,70.83
2017-10-14T05:24:10.742Z,70.76
2017-10-14T05:26:37.179Z,70.39
2017-10-14T05:29:03.647Z,70.52
2017-10-14T05:31:30.142Z,70.40
2017-10-14T05:33:56.581Z,70.49
2017-10-14T05:36:22.930Z,70.24
2017-10-14T05:38:49.369Z,70.03
2017-10-14T05:41:15.785Z,69.38
2017-10-14T05:43:42.216Z,69.06
2017-10-14T05:46:08.620Z,68.78
2017-10-14T05:48:35.088Z,68.52
2017-10-14T05:51:01.522Z,68.43
2017-10-14T05:53:27.956Z,67.91
2017-10-14T05:55:54.391Z,67.70
2017-10-14T05:58:20.826Z,67.40
2017-10-14T06:00:47.252Z,67.09
2017-10-14T06:03:13.685Z,67.32
2017-10-14T06:05:40.132Z,67.13
2017-10-14T06:08:06.566Z,66.26
2017-10-14T06:10:33.001Z,66.48
2017-10-14T06:12:59.454Z,66.25
2017-10-14T06:15:25.870Z,66.35
2017-10-14T06:17:53.124Z,66.35
2017-10-14T06:20:19.559Z,65.79
2017-10-14T06:22:46.097Z,65.96
2017-10-14T06:25:12.632Z,65.96
2017-10-14T06:27:39.068Z,65.82
2017-10-14T06:30:05.504Z,65.44
2017-10-14T06:32:31.883Z,65.16
2017-10-14T06:34:58.390Z,64.15
2017-10-14T06:37:24.890Z,63.96
2017-10-14T06:39:51.344Z,63.53
2017-10-14T06:42:17.785Z,63.03
2017-10-14T06:44:44.215Z,63.08
2017-10-14T06:47:10.649Z,62.83
2017-10-14T06:49:37.044Z,62.40
2017-10-14T06:52:03.518Z,61.18
2017-10-14T06:54:29.905Z,60.57
2017-10-14T06:56:56.377Z,59.96
2017-10-14T06:59:22.822Z,59.59
2017-10-14T07:01:49.205Z,59.33
2017-10-14T07:04:15.662Z,59.02
2017-10-14T07:06:42.229Z,58.47
2017-10-14T07:09:08.615Z,58.21
2017-10-14T07:11:35.081Z,58.58
2017-10-14T07:14:01.537Z,58.49
2017-10-14T07:16:28.073Z,57.67
2017-10-14T07:18:55.209Z,57.64
2017-10-14T07:21:21.660Z,58.08
2017-10-14T07:23:48.093Z,57.95
2017-10-14T07:26:14.936Z,57.16
2017-10-14T07:28:41.319Z,57.74
2017-10-14T07:31:07.830Z,57.86
2017-10-14T07:33:37.055Z,57.51
2017-10-14T07:36:06.442Z,56.88
2017-10-14T07:38:35.146Z,57.29
2017-10-14T07:41:01.636Z,55.89
2017-10-14T07:43:30.908Z,55.69
2017-10-14T07:45:57.372Z,56.73
2017-10-14T07:48:24.932Z,55.17
2017-10-14T07:50:51.287Z,53.59
2017-10-14T07:53:17.700Z,54.78
2017-10-14T07:55:44.441Z,54.33
2017-10-14T07:58:10.877Z,54.51
2017-10-14T08:00:37.312Z,53.39
2017-10-14T08:03:03.746Z,53.05
2017-10-14T08:05:30.284Z,53.29
2017-10-14T08:07:56.667Z,54.33
2017-10-14T08:10:23.152Z,54.07
2017-10-14T08:12:49.587Z,52.31
2017-10-14T08:15:16.409Z,53.73
2017-10-14T08:17:42.763Z,53.60
2017-10-14T08:20:09.219Z,52.27
2017-10-14T08:22:35.759Z,52.34
2017-10-14T08:25:02.119Z,52.21
2017-10-14T08:27:28.759Z,52.09
2017-10-14T08:29:55.193Z,52.21
2017-10-14T08:32:21.782Z,51.76
2017-10-14T08:34:48.197Z,51.65
2017-10-14T08:37:14.640Z,51.83
2017-10-14T08:39:41.086Z,51.27
2017-10-14T08:42:07.828Z,49.86
2017-10-14T08:44:35.184Z,50.50
2017-10-14T08:47:01.621Z,50.52
2017-10-14T08:49:28.259Z,49.07
2017-10-14T08:51:54.646Z,50.11
2017-10-14T08:54:21.113Z,50.80
2017-10-14T08:56:47.666Z,50.79
2017-10-14T08:59:14.100Z,49.94
2017-10-14T09:01:40.534Z,52.09
2017-10-14T09:04:07.188Z,50.93
2017-10-14T09:06:33.654Z,51.04
2017-10-14T09:09:00.236Z,50.59
2017-10-14T09:11:27.606Z,50.81
2017-10-14T09:13:54.040Z,51.86
2017-10-14T09:16:20.546Z,50.77
2017-10-14T09:18:47.012Z,51.09
2017-10-14T09:21:13.406Z,49.55
2017-10-14T09:23:39.874Z,50.25
2017-10-14T09:26:06.373Z,50.95
2017-10-14T09:28:33.191Z,51.56
2017-10-14T09:30:59.698Z,49.40
2017-10-14T09:33:26.087Z,49.35
2017-10-14T09:35:53.182Z,48.34
2017-10-14T09:38:19.617Z,46.92
2017-10-14T09:40:46.052Z,48.84
2017-10-14T09:43:14.409Z,48.34
2017-10-14T09:45:42.396Z,48.38
2017-10-14T09:48:11.487Z,48.13
2017-10-14T09:50:38.345Z,48.40
2017-10-14T09:53:04.720Z,49.34
2017-10-14T09:55:31.214Z,48.06
2017-10-14T09:57:57.650Z,49.47
2017-10-14T10:00:24.084Z,49.02
2017-10-14T10:02:50.520Z,47.49
2017-10-14T10:05:17.056Z,47.96
2017-10-14T10:07:43.500Z,47.91
2017-10-14T10:10:10.233Z,48.14
2017-10-14T10:12:36.670Z,47.77
2017-10-14T10:15:03.150Z,47.72
2017-10-14T10:17:29.537Z,47.75
2017-10-14T10:19:55.973Z,45.35
2017-10-14T10:22:22.354Z,46.00
2017-10-14T10:24:49.259Z,45.58
2017-10-14T10:27:15.638Z,45.05
2017-10-14T10:29:42.122Z,44.78
2017-10-14T10:32:08.557Z,45.20
2017-10-14T10:34:34.942Z,45.21
2017-10-14T10:37:01.327Z,45.03
2017-10-14T10:39:27.860Z,45.36
2017-10-14T10:41:54.297Z,44.99
2017-10-14T10:44:20.684Z,45.48
2017-10-14T10:46:47.172Z,45.20
2017-10-14T10:49:13.600Z,45.47
2017-10-14T10:51:40.034Z,45.12
2017-10-14T10:54:06.826Z,45.34
2017-10-14T10:56:33.268Z,45.22
2017-10-14T10:58:59.734Z,43.56
2017-10-14T11:01:26.183Z,43.94
2017-10-14T11:03:52.619Z,43.53
2017-10-14T11:06:19.053Z,43.66
2017-10-14T11:08:45.452Z,41.39
2017-10-14T11:11:11.922Z,41.41
2017-10-14T11:13:38.356Z,41.65
2017-10-14T11:16:04.811Z,40.43
2017-10-14T11:18:31.227Z,40.58
2017-10-14T11:20:58.097Z,40.01
2017-10-14T11:23:24.609Z,37.96
2017-10-14T11:25:51.874Z,38.44
2017-10-14T11:28:18.502Z,39.05
2017-10-14T11:30:44.882Z,38.80
2017-10-14T11:33:11.371Z,37.32
2017-10-14T11:35:37.806Z,38.16
2017-10-14T11:38:04.187Z,38.22
2017-10-14T11:40:30.613Z,37.93
2017-10-14T11:42:57.065Z,36.67
2017-10-14T11:45:23.969Z,34.53
2017-10-14T11:47:50.595Z,33.58
2017-10-14T11:50:21.352Z,32.57
2017-10-14T11:52:47.765Z,32.46
2017-10-14T11:55:14.658Z,32.27
2017-10-14T11:57:41.586Z,30.67
2017-10-14T12:00:09.069Z,31.53
2017-10-14T12:02:36.697Z,31.58
2017-10-14T12:05:04.064Z,30.85
2017-10-14T12:07:30.678Z,29.99
2017-10-14T12:10:00.139Z,30.27
2017-10-14T12:12:27.836Z,30.38
2017-10-14T12:14:54.234Z,29.74
2017-10-14T12:17:21.260Z,28.99
2017-10-14T12:19:49.256Z,28.91
2017-10-14T12:22:17.362Z,29.62
2017-10-14T12:24:44.013Z,29.86
2017-10-14T12:27:10.861Z,29.50
2017-10-14T12:29:37.292Z,29.66
2017-10-14T12:32:03.730Z,29.23
2017-10-14T12:34:30.184Z,29.62
2017-10-14T12:36:56.647Z,29.66
2017-10-14T12:39:23.034Z,29.73
2017-10-14T12:41:49.468Z,29.63
2017-10-14T12:44:15.852Z,29.89
2017-10-14T12:46:42.315Z,29.72
2017-10-14T12:49:08.760Z,29.37
2017-10-14T12:51:35.205Z,28.56
2017-10-14T12:54:01.646Z,28.24
2017-10-14T12:56:28.124Z,28.14
2017-10-14T12:58:54.607Z,27.96
2017-10-14T13:01:21.067Z,27.35
2017-10-14T13:03:47.481Z,27.79
2017-10-14T13:06:13.922Z,28.53
2017-10-14T13:08:40.352Z,29.00
2017-10-14T13:11:06.786Z,28.20
2017-10-14T13:13:33.223Z,27.46
2017-10-14T13:15:59.631Z,27.18
2017-10-14T13:18:26.074Z,27.09
2017-10-14T13:20:52.492Z,27.16
2017-10-14T13:23:19.325Z,26.68
2017-10-14T13:25:45.778Z,27.13
2017-10-14T13:28:12.195Z,27.62
2017-10-14T13:30:38.629Z,27.62
2017-10-14T13:33:05.114Z,27.24
2017-10-14T13:35:31.544Z,27.54
2017-10-14T13:37:57.980Z,27.54
2017-10-14T13:40:24.413Z,26.72
2017-10-14T13:42:50.849Z,26.59
2017-10-14T13:45:17.284Z,27.26
2017-10-14T13:47:43.718Z,28.23
2017-10-14T13:50:10.176Z,28.09
2017-10-14T13:52:36.596Z,27.27
2017-10-14T13:55:03.229Z,28.24
2017-10-14T13:57:29.666Z,28.36
2017-10-14T13:59:56.048Z,27.71
2017-10-14T14:02:22.639Z,28.32
2017-10-14T14:04:49.173Z,28.06
2017-10-14T14:07:15.627Z,27.88
2017-10-14T14:09:42.041Z,27.46
2017-10-14T14:12:09.268Z,28.16
2017-10-14T14:14:35.887Z,28.32
2017-10-14T14:17:02.371Z,27.76
2017-10-14T14:19:28.804Z,28.12
2017-10-14T14:21:55.241Z,28.17
2017-10-14T14:24:21.679Z,28.56
2017-10-14T14:26:48.109Z,28.37
2017-10-14T14:29:15.614Z,28.35
2017-10-14T14:31:42.487Z,28.19
2017-10-14T14:34:08.930Z,27.58
2017-10-14T14:36:35.385Z,28.21
2017-10-14T14:39:01.820Z,28.43
2017-10-14T14:41:28.269Z,29.06
2017-10-14T14:43:54.644Z,29.02
2017-10-14T14:46:21.124Z,29.31
2017-10-14T14:48:47.560Z,29.27
2017-10-14T14:51:13.993Z,29.53
2017-10-14T14:53:40.427Z,29.81
2017-10-14T14:56:06.864Z,29.85
2017-10-14T14:58:33.298Z,29.28
2017-10-14T15:00:59.732Z,30.09
2017-10-14T15:03:26.188Z,30.66
2017-10-14T15:05:52.602Z,31.19
2017-10-14T15:08:19.040Z,31.53
2017-10-14T15:10:46.188Z,32.29
2017-10-14T15:13:12.624Z,33.41
2017-10-14T15:15:39.058Z,34.43
2017-10-14T15:18:05.453Z,35.14
2017-10-14T15:20:31.825Z,36.57
2017-10-14T15:22:58.260Z,37.03
2017-10-14T15:25:24.696Z,37.56
2017-10-14T15:27:51.846Z,38.48
2017-10-14T15:30:18.282Z,39.92
2017-10-14T15:32:44.662Z,40.19
2017-10-14T15:35:11.098Z,40.08
2017-10-14T15:37:37.586Z,40.61
2017-10-14T15:40:04.023Z,40.46
2017-10-14T15:42:30.559Z,43.26
2017-10-14T15:44:57.710Z,43.41
2017-10-14T15:47:24.145Z,44.31
2017-10-14T15:49:50.583Z,45.39
2017-10-14T15:52:17.023Z,45.60
2017-10-14T15:54:43.453Z,45.05
2017-10-14T15:57:09.885Z,46.73
2017-10-14T15:59:36.273Z,46.66
2017-10-14T16:02:03.419Z,47.53
2017-10-14T16:04:29.889Z,47.72
2017-10-14T16:06:56.253Z,47.92
2017-10-14T16:09:22.644Z,48.24
2017-10-14T16:11:49.109Z,48.12
2017-10-14T16:14:15.542Z,48.06
2017-10-14T16:16:41.976Z,48.79
2017-10-14T16:19:09.130Z,48.30
2017-10-14T16:21:35.563Z,49.43
2017-10-14T16:24:02.205Z,49.01
2017-10-14T16:26:28.740Z,50.12
2017-10-14T16:28:55.174Z,51.13
2017-10-14T16:31:21.532Z,51.19
2017-10-14T16:33:48.025Z,50.46
2017-10-14T16:36:15.147Z,50.33
2017-10-14T16:38:41.630Z,51.30
2017-10-14T16:41:08.090Z,51.63
2017-10-14T16:43:34.603Z,51.35
2017-10-14T16:46:01.038Z,51.11
2017-10-14T16:48:27.523Z,50.99
2017-10-14T16:50:54.028Z,50.72
2017-10-14T16:53:21.160Z,51.44
2017-10-14T16:55:47.595Z,51.42
2017-10-14T16:58:14.084Z,51.29
2017-10-14T17:00:40.466Z,51.32
2017-10-14T17:03:07.008Z,51.49
2017-10-14T17:05:33.388Z,52.29
2017-10-14T17:07:59.872Z,52.14
2017-10-14T17:10:27.023Z,52.24
2017-10-14T17:12:53.416Z,52.78
2017-10-14T17:15:19.846Z,53.08
2017-10-14T17:17:46.332Z,54.43
2017-10-14T17:20:12.765Z,54.93
2017-10-14T17:22:39.694Z,53.56
2017-10-14T17:25:06.247Z,54.12
2017-10-14T17:27:33.398Z,54.14
2017-10-14T17:29:59.834Z,54.18
2017-10-14T17:32:26.267Z,55.29
2017-10-14T17:34:52.667Z,55.26
2017-10-14T17:37:19.104Z,55.43
2017-10-14T17:39:45.549Z,56.14
2017-10-14T17:42:12.008Z,56.70
2017-10-14T17:44:39.876Z,57.21
2017-10-14T17:47:06.503Z,57.68
2017-10-14T17:49:33.258Z,58.10
2017-10-14T17:51:59.693Z,58.92
2017-10-14T17:54:26.847Z,59.56
2017-10-14T17:56:53.692Z,60.01
2017-10-14T17:59:20.209Z,60.12
2017-10-14T18:01:47.253Z,59.85
2017-10-14T18:04:13.813Z,59.91
2017-10-14T18:06:40.247Z,60.13
2017-10-14T18:09:07.398Z,60.49
2017-10-14T18:11:34.552Z,60.50
2017-10-14T18:14:01.682Z,60.64
2017-10-14T18:16:29.060Z,60.46
2017-10-14T18:18:56.055Z,60.54
2017-10-14T18:21:23.157Z,60.19
2017-10-14T18:23:50.595Z,60.21
2017-10-14T18:26:17.460Z,60.20
2017-10-14T18:28:43.997Z,60.38
2017-10-14T18:31:10.432Z,60.44
2017-10-14T18:33:36.872Z,60.39
2017-10-14T18:36:03.301Z,61.42
2017-10-14T18:38:30.194Z,61.62
2017-10-14T18:40:56.661Z,61.67
2017-10-14T18:43:23.324Z,61.69
2017-10-14T18:45:49.922Z,61.71
2017-10-14T18:48:16.416Z,61.79
2017-10-14T18:50:43.446Z,62.38
2017-10-14T18:53:10.172Z,62.57
2017-10-14T18:55:36.615Z,63.01
2017-10-14T18:58:03.058Z,63.22
2017-10-14T19:00:29.494Z,62.70
2017-10-14T19:02:56.668Z,62.39
2017-10-14T19:05:23.285Z,63.19
2017-10-14T19:07:49.722Z,63.08
2017-10-14T19:10:16.259Z,62.97
2017-10-14T19:12:42.692Z,63.06
2017-10-14T19:15:09.125Z,63.48
2017-10-14T19:17:35.868Z,63.61
2017-10-14T19:20:02.812Z,64.17
2017-10-14T19:22:29.863Z,64.63
2017-10-14T19:24:57.342Z,64.62
2017-10-14T19:27:24.507Z,64.54
2017-10-14T19:29:51.319Z,64.62
2017-10-14T19:32:17.857Z,64.57
2017-10-14T19:34:44.296Z,65.11
2017-10-14T19:37:10.686Z,65.57
2017-10-14T19:39:37.061Z,66.06
2017-10-14T19:42:03.494Z,66.22
2017-10-14T19:44:29.928Z,66.18
2017-10-14T19:46:56.363Z,66.37
2017-10-14T19:49:22.902Z,66.18
2017-10-14T19:51:49.335Z,65.98
2017-10-14T19:54:16.481Z,65.71
2017-10-14T19:56:42.928Z,65.80
2017-10-14T19:59:09.357Z,65.93
2017-10-14T20:01:35.791Z,66.18
2017-10-14T20:04:02.328Z,66.35
2017-10-14T20:06:28.720Z,66.64
2017-10-14T20:08:55.198Z,66.84
2017-10-14T20:11:22.372Z,66.87
2017-10-14T20:13:48.785Z,67.08
2017-10-14T20:16:15.219Z,67.17
2017-10-14T20:18:41.653Z,67.09
2017-10-14T20:21:08.089Z,66.88
2017-10-14T20:23:34.523Z,66.91
2017-10-14T20:26:00.958Z,67.16
2017-10-14T20:28:28.107Z,67.30
2017-10-14T20:30:54.547Z,67.72
2017-10-14T20:33:20.981Z,68.16
2017-10-14T20:35:47.332Z,68.08
2017-10-14T20:38:13.745Z,67.83
2017-10-14T20:40:40.181Z,67.46
2017-10-14T20:43:06.619Z,67.34
2017-10-14T20:45:33.771Z,67.44
2017-10-14T20:48:00.208Z,67.78
2017-10-14T20:50:26.591Z,68.58
2017-10-14T20:52:53.092Z,69.16
2017-10-14T20:55:19.507Z,69.27
2017-10-14T20:57:45.942Z,69.03
2017-10-14T21:00:12.328Z,68.61
2017-10-14T21:02:39.527Z,68.40
2017-10-14T21:05:06.065Z,68.59
2017-10-14T21:07:32.504Z,68.91
2017-10-14T21:09:58.934Z,69.34
2017-10-14T21:12:25.370Z,69.41
2017-10-14T21:14:51.807Z,69.22
2017-10-14T21:17:18.238Z,69.15
2017-10-14T21:19:45.493Z,69.22
2017-10-14T21:22:11.929Z,69.33
2017-10-14T21:24:38.364Z,69.60
2017-10-14T21:27:04.798Z,69.81
2017-10-14T21:29:31.234Z,69.52
2017-10-14T21:31:57.667Z,69.43
2017-10-14T21:34:24.101Z,69.21
2017-10-14T21:36:51.252Z,69.19
2017-10-14T21:39:17.688Z,69.37
2017-10-14T21:41:44.123Z,70.17
2017-10-14T21:44:10.559Z,70.62
2017-10-14T21:46:36.948Z,70.85
2017-10-14T21:49:03.324Z,70.33
2017-10-14T21:51:29.861Z,70.25
2017-10-14T21:53:56.911Z,70.72
2017-10-14T21:56:23.349Z,71.14
2017-10-14T21:58:49.780Z,71.06
2017-10-14T22:01:16.214Z,70.76
2017-10-14T22:03:42.607Z,70.87
2017-10-14T22:06:09.070Z,70.90
2017-10-14T22:08:35.520Z,70.91
2017-10-14T22:11:02.780Z,70.90
2017-10-14T22:13:29.229Z,71.13
2017-10-14T22:15:55.745Z,71.08
2017-10-14T22:18:22.180Z,71.00
2017-10-14T22:20:48.616Z,71.45
2017-10-14T22:23:15.052Z,71.71
2017-10-14T22:25:41.432Z,71.47
2017-10-14T22:28:08.698Z,71.28
2017-10-14T22:30:35.166Z,71.06
2017-10-14T22:33:01.609Z,71.37
2017-10-14T22:35:28.044Z,71.71
2017-10-14T22:37:54.441Z,71.97
2017-10-14T22:40:20.914Z,71.96
2017-10-14T22:42:47.302Z,71.97
2017-10-14T22:45:14.596Z,71.57
2017-10-14T22:47:41.037Z,71.23
2017-10-14T22:50:07.555Z,71.52
2017-10-14T22:52:33.997Z,72.21
2017-10-14T22:55:00.440Z,72.32
2017-10-14T22:57:26.878Z,72.08
2017-10-14T22:59:53.313Z,72.11
2017-10-14T23:02:20.520Z,72.34
2017-10-14T23:04:46.955Z,72.46
2017-10-14T23:07:13.455Z,72.18
2017-10-14T23:09:39.823Z,72.22
2017-10-14T23:12:06.307Z,72.26
2017-10-14T23:14:32.696Z,71.99
2017-10-14T23:16:59.171Z,72.39
2017-10-14T23:19:26.327Z,72.71
2017-10-14T23:21:52.762Z,72.92
2017-10-14T23:24:19.198Z,72.95
2017-10-14T23:26:45.587Z,73.03
2017-10-14T23:29:12.023Z,73.49
2017-10-14T23:31:38.501Z,73.80
2017-10-14T23:34:04.936Z,73.92
2017-10-14T23:36:31.986Z,73.65
2017-10-14T23:38:58.371Z,73.27
2017-10-14T23:41:24.753Z,73.08
2017-10-14T23:43:51.143Z,72.99
2017-10-14T23:46:17.653Z,72.99
2017-10-14T23:48:44.161Z,73.30
2017-10-14T23:51:10.595Z,73.24
2017-10-14T23:53:37.644Z,73.20
2017-10-14T23:56:04.079Z,73.12
2017-10-14T23:58:30.513Z,73.36
